createdAt,value
2019-02-18T00:01:49.979Z,9.52
2019-02-18T00:04:18.420Z,9.49
2019-02-18T00:06:46.885Z,9.47
2019-02-18T00:09:15.377Z,9.46
2019-02-18T00:11:43.894Z,9.43
2019-02-18T00:14:12.323Z,9.39
2019-02-18T00:16:40.777Z,9.36
2019-02-18T00:19:09.303Z,9.32
2019-02-18T00:21:37.781Z,9.30
2019-02-18T00:24:06.208Z,9.27
2019-02-18T00:26:34.655Z,9.25
2019-02-18T00:29:03.055Z,9.22
2019-02-18T00:31:31.505Z,9.20
2019-02-18T00:33:59.933Z,9.17
2019-02-18T00:36:28.408Z,9.15
2019-02-18T00:38:56.887Z,9.13
2019-02-18T00:41:25.448Z,9.09
2019-02-18T00:43:53.860Z,9.06
2019-02-18T00:46:22.321Z,9.04
2019-02-18T00:48:50.739Z,9.02
2019-02-18T00:51:19.170Z,9.01
2019-02-18T00:53:47.596Z,9.00
2019-02-18T00:56:16.055Z,8.97
2019-02-18T00:58:44.534Z,8.95
2019-02-18T01:01:12.997Z,8.94
2019-02-18T01:03:41.448Z,8.94
2019-02-18T01:06:10.055Z,8.92
2019-02-18T01:08:38.683Z,8.91
2019-02-18T01:11:07.193Z,8.88
2019-02-18T01:13:35.783Z,8.85
2019-02-18T01:16:04.274Z,8.83
2019-02-18T01:18:32.731Z,8.79
2019-02-18T01:21:01.141Z,8.77
2019-02-18T01:23:29.590Z,8.73
2019-02-18T01:25:58.021Z,8.71
2019-02-18T01:28:26.470Z,8.69
2019-02-18T01:30:54.895Z,8.65
2019-02-18T01:33:23.543Z,8.62
2019-02-18T01:35:51.962Z,8.59
2019-02-18T01:38:20.403Z,8.60
2019-02-18T01:40:48.831Z,8.59
2019-02-18T01:43:17.292Z,8.60
2019-02-18T01:45:45.704Z,8.58
2019-02-18T01:48:14.123Z,8.57
2019-02-18T01:50:42.655Z,8.56
2019-02-18T01:53:11.169Z,8.56
2019-02-18T01:55:39.599Z,8.56
2019-02-18T01:58:08.029Z,8.54
2019-02-18T02:00:36.745Z,8.53
2019-02-18T02:03:05.371Z,8.51
2019-02-18T02:05:33.820Z,8.49
2019-02-18T02:08:02.232Z,8.48
2019-02-18T02:10:30.669Z,8.44
2019-02-18T02:13:25.114Z,8.42
2019-02-18T02:15:53.707Z,8.41
2019-02-18T02:18:22.126Z,8.38
2019-02-18T02:20:50.623Z,8.36
2019-02-18T02:23:19.027Z,8.35
2019-02-18T02:25:47.557Z,8.32
2019-02-18T02:28:15.969Z,8.31
2019-02-18T02:30:44.477Z,8.30
2019-02-18T02:33:12.887Z,8.28
2019-02-18T02:35:41.335Z,8.27
2019-02-18T02:38:09.768Z,8.28
2019-02-18T02:40:38.336Z,8.26
2019-02-18T02:43:06.826Z,8.24
2019-02-18T02:45:35.261Z,8.22
2019-02-18T02:48:03.762Z,8.20
2019-02-18T02:50:32.223Z,8.19
2019-02-18T02:53:00.622Z,8.17
2019-02-18T02:55:29.070Z,8.15
2019-02-18T02:57:57.527Z,8.13
2019-02-18T03:00:25.946Z,8.10
2019-02-18T03:02:54.427Z,8.08
2019-02-18T03:05:22.912Z,8.08
2019-02-18T03:07:51.371Z,8.08
2019-02-18T03:10:19.803Z,8.06
2019-02-18T03:12:48.251Z,8.04
2019-02-18T03:15:16.671Z,8.04
2019-02-18T03:17:45.202Z,8.03
2019-02-18T03:20:13.966Z,8.02
2019-02-18T03:22:42.410Z,8.01
2019-02-18T03:25:21.531Z,7.99
2019-02-18T03:27:55.545Z,7.99
2019-02-18T03:30:38.850Z,7.96
2019-02-18T03:33:09.938Z,7.96
2019-02-18T03:35:38.342Z,7.95
2019-02-18T03:38:06.789Z,7.92
2019-02-18T03:40:35.732Z,7.91
2019-02-18T03:43:04.226Z,7.89
2019-02-18T03:45:32.642Z,7.90
2019-02-18T03:48:01.096Z,7.88
2019-02-18T03:50:29.523Z,7.87
2019-02-18T03:52:57.985Z,7.84
2019-02-18T03:55:26.565Z,7.82
2019-02-18T03:57:55.187Z,7.81
2019-02-18T04:00:23.670Z,7.78
2019-02-18T04:02:52.119Z,7.76
2019-02-18T04:05:20.615Z,7.74
2019-02-18T04:07:49.090Z,7.71
2019-02-18T04:10:17.545Z,7.72
2019-02-18T04:12:46.031Z,7.69
2019-02-18T04:15:17.850Z,7.67
2019-02-18T04:17:47.019Z,7.67
2019-02-18T04:20:15.483Z,7.64
2019-02-18T04:22:43.905Z,7.62
2019-02-18T04:25:12.358Z,7.58
2019-02-18T04:27:40.763Z,7.57
2019-02-18T04:30:13.601Z,7.55
2019-02-18T04:32:41.284Z,7.54
2019-02-18T04:35:09.810Z,7.53
2019-02-18T04:37:38.261Z,7.53
2019-02-18T04:40:08.408Z,7.51
2019-02-18T04:42:36.833Z,7.51
2019-02-18T04:45:10.227Z,7.49
2019-02-18T04:47:38.649Z,7.49
2019-02-18T04:50:08.323Z,7.48
2019-02-18T04:52:36.736Z,7.47
2019-02-18T04:55:08.403Z,7.47
2019-02-18T04:57:36.825Z,7.47
2019-02-18T05:00:08.519Z,7.47
2019-02-18T05:02:37.073Z,7.45
2019-02-18T05:05:08.076Z,7.44
2019-02-18T05:07:36.509Z,7.41
2019-02-18T05:10:07.995Z,7.40
2019-02-18T05:12:36.441Z,7.37
2019-02-18T05:15:06.711Z,7.36
2019-02-18T05:17:35.162Z,7.34
2019-02-18T05:20:05.028Z,7.33
2019-02-18T05:22:33.460Z,7.29
2019-02-18T05:25:01.945Z,7.29
2019-02-18T05:27:33.364Z,7.28
2019-02-18T05:30:00.683Z,7.27
2019-02-18T05:32:29.138Z,7.25
2019-02-18T05:34:57.554Z,7.25
2019-02-18T05:37:26.007Z,7.25
2019-02-18T05:39:55.460Z,7.23
2019-02-18T05:42:24.081Z,7.21
2019-02-18T05:44:52.497Z,7.20
2019-02-18T05:47:20.943Z,7.18
2019-02-18T05:49:49.356Z,7.16
2019-02-18T05:52:17.807Z,7.12
2019-02-18T05:54:46.214Z,7.10
2019-02-18T05:57:14.659Z,7.09
2019-02-18T05:59:43.094Z,7.04
2019-02-18T06:02:11.544Z,7.02
2019-02-18T06:04:40.034Z,7.00
2019-02-18T06:07:08.563Z,7.00
2019-02-18T06:09:36.967Z,6.99
2019-02-18T06:12:05.574Z,6.98
2019-02-18T06:14:34.007Z,6.98
2019-02-18T06:17:02.913Z,6.97
2019-02-18T06:19:31.371Z,6.94
2019-02-18T06:21:59.973Z,6.93
2019-02-18T06:24:28.488Z,6.92
2019-02-18T06:26:56.992Z,6.90
2019-02-18T06:29:25.450Z,6.89
2019-02-18T06:31:53.892Z,6.86
2019-02-18T06:34:22.412Z,6.85
2019-02-18T06:36:50.833Z,6.82
2019-02-18T06:39:19.347Z,6.81
2019-02-18T06:41:47.766Z,6.78
2019-02-18T06:44:17.866Z,6.76
2019-02-18T06:46:47.930Z,6.72
2019-02-18T06:49:16.445Z,6.73
2019-02-18T06:51:45.040Z,6.71
2019-02-18T06:54:13.564Z,6.70
2019-02-18T06:56:55.412Z,6.71
2019-02-18T06:59:31.137Z,6.72
2019-02-18T07:02:01.378Z,6.71
2019-02-18T07:04:43.124Z,6.72
2019-02-18T07:07:15.887Z,6.70
2019-02-18T07:09:51.199Z,6.72
2019-02-18T07:12:20.778Z,6.72
2019-02-18T07:14:49.277Z,6.71
2019-02-18T07:17:17.713Z,6.70
2019-02-18T07:19:46.182Z,6.71
2019-02-18T07:22:14.670Z,6.71
2019-02-18T07:24:43.122Z,6.71
2019-02-18T07:27:11.579Z,6.72
2019-02-18T07:29:40.004Z,6.72
2019-02-18T07:32:08.464Z,6.76
2019-02-18T07:34:36.901Z,6.78
2019-02-18T07:37:05.519Z,6.77
2019-02-18T07:39:34.008Z,6.79
2019-02-18T07:42:02.478Z,6.81
2019-02-18T07:44:30.925Z,6.82
2019-02-18T07:46:59.417Z,6.81
2019-02-18T07:49:27.836Z,6.82
2019-02-18T07:51:56.523Z,6.83
2019-02-18T07:54:25.030Z,6.81
2019-02-18T07:56:53.550Z,6.81
2019-02-18T07:59:22.100Z,6.86
2019-02-18T08:01:50.554Z,6.90
2019-02-18T08:04:18.991Z,6.91
2019-02-18T08:06:47.430Z,6.93
2019-02-18T08:09:15.932Z,6.96
2019-02-18T08:11:44.467Z,6.98
2019-02-18T08:14:13.050Z,7.01
2019-02-18T08:16:42.393Z,7.05
2019-02-18T08:19:10.816Z,7.06
2019-02-18T08:21:39.413Z,7.09
2019-02-18T08:24:08.008Z,7.10
2019-02-18T08:26:36.515Z,7.14
2019-02-18T08:29:05.028Z,7.18
2019-02-18T08:31:33.607Z,7.22
2019-02-18T08:34:02.084Z,7.25
2019-02-18T08:36:30.511Z,7.27
2019-02-18T08:38:59.043Z,7.29
2019-02-18T08:41:27.442Z,7.31
2019-02-18T08:43:55.979Z,7.31
2019-02-18T08:46:24.523Z,7.35
2019-02-18T08:48:52.941Z,7.38
2019-02-18T08:51:21.373Z,7.41
2019-02-18T08:53:49.833Z,7.47
2019-02-18T08:56:18.267Z,7.52
2019-02-18T08:58:46.723Z,7.57
2019-02-18T09:01:15.229Z,7.61
2019-02-18T09:03:43.683Z,7.67
2019-02-18T09:06:12.161Z,7.73
2019-02-18T09:08:40.625Z,7.79
2019-02-18T09:11:09.046Z,7.82
2019-02-18T09:13:37.576Z,7.90
2019-02-18T09:16:06.066Z,7.98
2019-02-18T09:18:34.524Z,8.07
2019-02-18T09:21:02.937Z,8.16
2019-02-18T09:23:33.036Z,8.25
2019-02-18T09:26:01.622Z,8.35
2019-02-18T09:28:30.254Z,8.45
2019-02-18T09:30:58.800Z,8.55
2019-02-18T09:33:27.242Z,8.66
2019-02-18T09:35:55.713Z,8.76
2019-02-18T09:38:25.496Z,8.87
2019-02-18T09:40:54.123Z,8.98
2019-02-18T09:43:22.671Z,9.09
2019-02-18T09:45:51.308Z,9.20
2019-02-18T09:48:19.747Z,9.34
2019-02-18T09:50:48.211Z,9.44
2019-02-18T09:53:16.634Z,9.55
2019-02-18T09:55:45.077Z,9.68
2019-02-18T09:58:13.513Z,9.79
2019-02-18T10:00:42.052Z,9.90
2019-02-18T10:03:10.642Z,10.01
2019-02-18T10:05:39.089Z,10.11
2019-02-18T10:08:07.511Z,10.37
2019-02-18T10:10:36.295Z,10.37
2019-02-18T10:13:04.893Z,10.48
2019-02-18T10:15:33.344Z,10.60
2019-02-18T10:18:01.787Z,10.76
2019-02-18T10:20:30.336Z,11.06
2019-02-18T10:22:58.857Z,11.06
2019-02-18T10:25:27.316Z,11.33
2019-02-18T10:27:55.845Z,11.40
2019-02-18T10:30:24.326Z,11.40
2019-02-18T10:32:52.741Z,11.59
2019-02-18T10:35:21.182Z,11.68
2019-02-18T10:37:55.012Z,11.79
2019-02-18T10:40:19.851Z,11.88
2019-02-18T10:42:48.291Z,12.01
2019-02-18T10:45:16.890Z,12.14
2019-02-18T10:47:45.360Z,12.31
2019-02-18T10:50:13.924Z,12.42
2019-02-18T10:52:42.385Z,12.55
2019-02-18T10:55:11.668Z,12.71
2019-02-18T10:57:40.462Z,12.86
2019-02-18T11:00:16.523Z,13.05
2019-02-18T11:02:45.511Z,13.21
2019-02-18T11:05:14.095Z,13.36
2019-02-18T11:07:42.671Z,13.53
2019-02-18T11:10:13.538Z,13.69
2019-02-18T11:12:42.040Z,13.83
2019-02-18T11:15:14.808Z,13.94
2019-02-18T11:17:43.578Z,14.10
2019-02-18T11:20:12.976Z,14.30
2019-02-18T11:22:41.536Z,14.46
2019-02-18T11:25:11.540Z,14.60
2019-02-18T11:27:40.104Z,14.73
2019-02-18T11:30:16.694Z,14.98
2019-02-18T11:32:45.116Z,15.19
2019-02-18T11:35:13.923Z,15.36
2019-02-18T11:37:42.361Z,15.48
2019-02-18T11:40:15.658Z,15.62
2019-02-18T11:42:44.171Z,15.83
2019-02-18T11:45:14.362Z,16.14
2019-02-18T11:47:42.839Z,16.43
2019-02-18T11:50:13.766Z,16.74
2019-02-18T11:52:42.188Z,17.02
2019-02-18T11:55:12.616Z,17.30
2019-02-18T11:57:41.430Z,17.53
2019-02-18T12:00:17.304Z,17.73
2019-02-18T12:02:46.298Z,17.81
2019-02-18T12:05:14.731Z,18.10
2019-02-18T12:07:43.278Z,18.38
2019-02-18T12:10:12.978Z,18.56
2019-02-18T12:12:41.822Z,18.73
2019-02-18T12:15:12.993Z,18.91
2019-02-18T12:17:41.432Z,19.17
2019-02-18T12:20:12.739Z,19.44
2019-02-18T12:22:41.242Z,19.72
2019-02-18T12:25:10.650Z,20.01
2019-02-18T12:27:39.557Z,20.23
2019-02-18T12:30:18.730Z,20.33
2019-02-18T12:32:47.227Z,20.39
2019-02-18T12:35:15.654Z,20.50
2019-02-18T12:37:54.653Z,20.68
2019-02-18T12:40:14.658Z,20.91
2019-02-18T12:42:43.159Z,21.08
2019-02-18T12:45:14.428Z,21.19
2019-02-18T12:47:43.192Z,21.30
2019-02-18T12:50:12.483Z,21.35
2019-02-18T12:52:41.016Z,21.42
2019-02-18T12:55:13.009Z,21.53
2019-02-18T12:57:41.549Z,21.61
2019-02-18T13:00:15.040Z,21.80
2019-02-18T13:02:45.043Z,21.90
2019-02-18T13:05:13.994Z,21.82
2019-02-18T13:07:42.588Z,21.73
2019-02-18T13:10:12.018Z,21.72
2019-02-18T13:12:40.938Z,21.79
2019-02-18T13:15:12.274Z,21.90
2019-02-18T13:17:42.705Z,21.95
2019-02-18T13:20:11.114Z,22.04
2019-02-18T13:22:40.030Z,22.18
2019-02-18T13:25:09.615Z,22.23
2019-02-18T13:27:38.047Z,22.27
2019-02-18T13:30:15.477Z,22.22
2019-02-18T13:32:44.018Z,22.25
2019-02-18T13:35:12.687Z,22.25
2019-02-18T13:37:41.128Z,22.15
2019-02-18T13:40:10.185Z,22.05
2019-02-18T13:42:38.766Z,22.09
2019-02-18T13:45:08.445Z,22.10
2019-02-18T13:47:36.908Z,22.07
2019-02-18T13:50:13.330Z,22.07
2019-02-18T13:52:41.759Z,22.17
2019-02-18T13:55:11.868Z,22.04
2019-02-18T13:57:40.830Z,21.98
2019-02-18T14:00:18.495Z,21.97
2019-02-18T14:02:47.168Z,21.93
2019-02-18T14:05:15.975Z,21.90
2019-02-18T14:07:44.532Z,21.82
2019-02-18T14:10:13.558Z,21.74
2019-02-18T14:12:42.116Z,21.65
2019-02-18T14:15:12.679Z,21.60
2019-02-18T14:17:41.240Z,21.59
2019-02-18T14:20:14.291Z,21.64
2019-02-18T14:22:42.855Z,21.75
2019-02-18T14:25:11.930Z,21.97
2019-02-18T14:27:40.485Z,22.41
2019-02-18T14:30:12.003Z,23.23
2019-02-18T14:32:40.520Z,24.15
2019-02-18T14:35:09.498Z,24.96
2019-02-18T14:37:37.914Z,25.67
2019-02-18T14:40:08.067Z,25.68
2019-02-18T14:42:36.581Z,24.51
2019-02-18T14:45:05.752Z,23.28
2019-02-18T14:47:34.272Z,22.41
2019-02-18T14:50:02.771Z,21.73
2019-02-18T14:52:31.432Z,21.30
2019-02-18T14:54:59.944Z,21.03
2019-02-18T14:57:28.738Z,20.74
2019-02-18T14:59:57.292Z,20.43
2019-02-18T15:02:25.758Z,20.18
2019-02-18T15:04:54.332Z,20.06
2019-02-18T15:07:23.089Z,19.93
2019-02-18T15:09:51.653Z,19.71
2019-02-18T15:12:20.811Z,19.44
2019-02-18T15:14:49.310Z,19.28
2019-02-18T15:17:17.820Z,19.17
2019-02-18T15:19:46.265Z,19.06
2019-02-18T15:22:14.801Z,18.99
2019-02-18T15:24:43.240Z,18.88
2019-02-18T15:27:12.085Z,18.86
2019-02-18T15:29:40.527Z,18.79
2019-02-18T15:32:09.047Z,18.72
2019-02-18T15:34:37.494Z,18.66
2019-02-18T15:37:06.085Z,18.55
2019-02-18T15:39:34.522Z,18.45
2019-02-18T15:42:03.104Z,18.36
2019-02-18T15:44:31.639Z,18.31
2019-02-18T15:47:00.164Z,18.22
2019-02-18T15:49:28.791Z,18.17
2019-02-18T15:51:57.458Z,18.09
2019-02-18T15:54:26.016Z,18.01
2019-02-18T15:56:54.530Z,17.93
2019-02-18T15:59:23.279Z,17.86
2019-02-18T16:01:51.716Z,17.82
2019-02-18T16:04:20.244Z,17.74
2019-02-18T16:06:48.757Z,17.67
2019-02-18T16:09:17.217Z,17.56
2019-02-18T16:11:45.826Z,17.47
2019-02-18T16:14:14.642Z,17.40
2019-02-18T16:16:43.113Z,17.30
2019-02-18T16:19:12.035Z,17.22
2019-02-18T16:21:40.471Z,17.15
2019-02-18T16:24:19.344Z,17.10
2019-02-18T16:26:39.161Z,17.04
2019-02-18T16:29:07.619Z,16.97
2019-02-18T16:31:36.146Z,16.90
2019-02-18T16:34:04.944Z,16.84
2019-02-18T16:36:33.490Z,16.77
2019-02-18T16:39:02.329Z,16.70
2019-02-18T16:41:30.859Z,16.63
2019-02-18T16:43:59.318Z,16.55
2019-02-18T16:46:28.030Z,16.51
2019-02-18T16:48:56.809Z,16.45
2019-02-18T16:51:25.265Z,16.39
2019-02-18T16:53:53.692Z,16.33
2019-02-18T16:56:22.156Z,16.27
2019-02-18T16:58:50.576Z,16.21
2019-02-18T17:01:19.516Z,16.16
2019-02-18T17:03:48.075Z,16.06
2019-02-18T17:06:16.540Z,15.98
2019-02-18T17:08:44.929Z,15.90
2019-02-18T17:11:13.425Z,15.83
2019-02-18T17:13:41.853Z,15.75
2019-02-18T17:16:10.375Z,15.67
2019-02-18T17:18:38.799Z,15.61
2019-02-18T17:21:07.268Z,15.52
2019-02-18T17:23:35.720Z,15.41
2019-02-18T17:26:04.161Z,15.28
2019-02-18T17:28:32.723Z,15.21
2019-02-18T17:31:01.254Z,15.16
2019-02-18T17:33:30.150Z,15.10
2019-02-18T17:35:58.560Z,15.02
2019-02-18T17:38:27.055Z,14.95
2019-02-18T17:40:55.953Z,14.88
2019-02-18T17:43:24.395Z,14.85
2019-02-18T17:45:52.976Z,14.80
2019-02-18T17:48:21.444Z,14.76
2019-02-18T17:50:49.895Z,14.69
2019-02-18T17:53:18.342Z,14.63
2019-02-18T17:55:46.767Z,14.57
2019-02-18T17:58:15.207Z,14.51
2019-02-18T18:00:45.397Z,14.47
2019-02-18T18:03:14.031Z,14.42
2019-02-18T18:05:44.619Z,14.36
2019-02-18T18:08:12.997Z,14.33
2019-02-18T18:10:41.426Z,14.27
2019-02-18T18:13:09.960Z,14.22
2019-02-18T18:15:38.424Z,14.18
2019-02-18T18:18:06.870Z,14.14
2019-02-18T18:20:35.734Z,14.10
2019-02-18T18:23:04.252Z,14.05
2019-02-18T18:25:32.791Z,14.00
2019-02-18T18:28:01.252Z,13.98
2019-02-18T18:30:29.779Z,13.90
2019-02-18T18:32:58.232Z,13.86
2019-02-18T18:35:26.683Z,13.79
2019-02-18T18:37:55.399Z,13.74
2019-02-18T18:40:23.870Z,13.72
2019-02-18T18:42:52.286Z,13.69
2019-02-18T18:45:21.177Z,13.64
2019-02-18T18:47:49.619Z,13.58
2019-02-18T18:50:20.484Z,13.52
2019-02-18T18:52:48.969Z,13.47
2019-02-18T18:55:17.739Z,13.44
2019-02-18T18:57:46.294Z,13.39
2019-02-18T19:00:21.740Z,13.35
2019-02-18T19:02:50.186Z,13.30
2019-02-18T19:05:18.989Z,13.24
2019-02-18T19:07:47.438Z,13.22
2019-02-18T19:10:16.903Z,13.17
2019-02-18T19:12:45.396Z,13.10
2019-02-18T19:15:15.956Z,13.05
2019-02-18T19:17:44.473Z,12.98
2019-02-18T19:20:13.528Z,12.96
2019-02-18T19:22:41.962Z,12.92
2019-02-18T19:25:11.703Z,12.87
2019-02-18T19:27:40.129Z,12.81
2019-02-18T19:30:17.029Z,12.78
2019-02-18T19:32:45.997Z,12.73
2019-02-18T19:35:14.558Z,12.64
2019-02-18T19:37:43.057Z,12.64
2019-02-18T19:40:13.438Z,12.66
2019-02-18T19:42:42.016Z,12.65
2019-02-18T19:45:16.667Z,12.64
2019-02-18T19:47:45.097Z,12.60
2019-02-18T19:50:13.706Z,12.60
2019-02-18T19:52:42.383Z,12.58
2019-02-18T19:55:11.924Z,12.55
2019-02-18T19:57:40.458Z,12.53
2019-02-18T20:00:12.043Z,12.50
2019-02-18T20:02:40.849Z,12.46
2019-02-18T20:05:10.487Z,12.43
2019-02-18T20:07:38.961Z,12.36
2019-02-18T20:10:10.282Z,12.33
2019-02-18T20:12:38.933Z,12.30
2019-02-18T20:15:12.736Z,12.27
2019-02-18T20:17:41.194Z,12.24
2019-02-18T20:20:14.319Z,12.20
2019-02-18T20:22:42.965Z,12.18
2019-02-18T20:25:11.548Z,12.13
2019-02-18T20:27:40.002Z,12.04
2019-02-18T20:30:13.972Z,12.07
2019-02-18T20:32:42.488Z,12.04
2019-02-18T20:35:11.472Z,12.01
2019-02-18T20:37:40.052Z,11.98
2019-02-18T20:40:09.961Z,11.94
2019-02-18T20:42:38.950Z,11.87
2019-02-18T20:45:12.788Z,11.87
2019-02-18T20:47:41.407Z,11.86
2019-02-18T20:50:11.679Z,11.82
2019-02-18T20:52:40.218Z,11.75
2019-02-18T20:55:15.672Z,11.75
2019-02-18T20:57:44.173Z,11.74
2019-02-18T21:00:20.248Z,11.74
2019-02-18T21:02:48.980Z,11.74
2019-02-18T21:05:17.506Z,11.72
2019-02-18T21:07:46.042Z,11.70
2019-02-18T21:10:17.710Z,11.68
2019-02-18T21:12:46.138Z,11.64
2019-02-18T21:15:14.798Z,11.61
2019-02-18T21:17:43.319Z,11.61
2019-02-18T21:20:13.307Z,11.57
2019-02-18T21:22:41.805Z,11.56
2019-02-18T21:25:10.909Z,11.56
2019-02-18T21:27:39.424Z,11.54
2019-02-18T21:30:10.915Z,11.50
2019-02-18T21:32:40.013Z,11.47
2019-02-18T21:35:08.735Z,11.44
2019-02-18T21:37:37.254Z,11.43
2019-02-18T21:40:10.542Z,11.42
2019-02-18T21:42:39.062Z,11.38
2019-02-18T21:45:13.465Z,11.37
2019-02-18T21:47:41.961Z,11.36
2019-02-18T21:50:11.399Z,11.32
2019-02-18T21:52:40.433Z,11.29
2019-02-18T21:55:10.478Z,11.25
2019-02-18T21:57:39.000Z,11.24
2019-02-18T22:00:17.279Z,11.24
2019-02-18T22:02:46.056Z,11.21
2019-02-18T22:05:14.830Z,11.20
2019-02-18T22:07:43.333Z,11.18
2019-02-18T22:10:11.825Z,11.18
2019-02-18T22:12:40.298Z,11.16
2019-02-18T22:15:11.047Z,11.15
2019-02-18T22:17:39.573Z,11.12
2019-02-18T22:20:10.507Z,11.08
2019-02-18T22:22:39.153Z,11.05
2019-02-18T22:25:11.933Z,11.02
2019-02-18T22:27:40.464Z,11.00
2019-02-18T22:30:11.693Z,10.99
2019-02-18T22:32:40.168Z,10.94
2019-02-18T22:35:09.113Z,10.91
2019-02-18T22:37:37.931Z,10.91
2019-02-18T22:40:08.618Z,10.90
2019-02-18T22:42:37.072Z,10.87
2019-02-18T22:45:07.247Z,10.85
2019-02-18T22:47:35.951Z,10.83
2019-02-18T22:50:04.820Z,10.84
2019-02-18T22:52:33.738Z,10.82
2019-02-18T22:55:02.274Z,10.80
2019-02-18T22:57:30.915Z,10.78
2019-02-18T22:59:59.515Z,10.75
2019-02-18T23:02:28.075Z,10.75
2019-02-18T23:04:56.598Z,10.75
2019-02-18T23:07:25.046Z,10.74
2019-02-18T23:09:54.033Z,10.74
2019-02-18T23:12:22.724Z,10.73
2019-02-18T23:14:51.372Z,10.76
2019-02-18T23:17:19.954Z,10.76
2019-02-18T23:19:48.480Z,10.76
2019-02-18T23:22:16.969Z,10.76
2019-02-18T23:24:45.511Z,10.75
2019-02-18T23:27:14.015Z,10.73
2019-02-18T23:29:42.651Z,10.72
2019-02-18T23:32:11.151Z,10.69
2019-02-18T23:34:39.725Z,10.67
2019-02-18T23:37:08.317Z,10.67
2019-02-18T23:39:36.937Z,10.68
2019-02-18T23:42:05.512Z,10.68
2019-02-18T23:44:34.046Z,10.68
2019-02-18T23:47:02.703Z,10.67
2019-02-18T23:49:31.213Z,10.64
2019-02-18T23:51:59.738Z,10.62
2019-02-18T23:54:28.197Z,10.63
2019-02-18T23:56:56.707Z,10.62
2019-02-18T23:59:25.381Z,10.60
